Sisimiut

KL  EN  DA
ASIAQ
Weather Now GREENLAND SURVEY
Updated [WGT/WGST] Temperature [°C] Wind [m/s] Air pressure [hPa] Relative humidity [%] Precipitation [mm]
Present Wind chill Speed Max
27.09 02:00-3,9-7,02,0 ⇐2,8102170n/a
27.09 01:00-3,7-7,12,2 ⇖2,9102174n/a
27.09 00:00-3,8-8,02,9 ⇐3,5102172n/a
26.09 23:00-3,6-6,92,2 ⇐2,9102074n/a
26.09 22:00-2,7-4,71,4 ⇐1,8102072n/a
26.09 21:00-2,2-4,81,8 ⇐2,2102071n/a
26.09 20:00-1,00,00,2 ⇓0,8102068n/a
26.09 19:00-0,4-4,53,6 ⇖5,4101960n/a
26.09 18:000,3-3,53,4 ⇖5,0101961n/a
26.09 17:000,4-1,91,9 ⇗3,0101857n/a
26.09 16:000,6-3,64,1 ⇒5,6101856n/a
26.09 15:000,4-2,52,5 ⇒4,3101853n/a
26.09 14:00-0,5-4,43,4 ⇐4,6101854n/a
26.09 13:00-0,9-5,13,7 ⇐4,5101854n/a
26.09 12:00-1,3-6,24,4 ⇐5,4101857n/a
26.09 11:00-2,1-7,54,9 ⇐6,0101856n/a
26.09 10:00-2,5-6,73,2 ⇐4,1101856n/a
26.09 09:00-3,1-7,83,6 ⇐4,7101864n/a
26.09 08:00-3,80,0n/an/an/an/an/a
26.09 07:00-4,0-9,54,5 ⇐5,1101863n/a
26.09 06:00-3,8-7,02,1 ⇐2,9101967n/a
26.09 05:00-3,7-8,63,7 ⇐4,2101964n/a
26.09 04:00-3,5-8,23,5 ⇐4,5101960n/a
26.09 03:00-3,3-7,53,0 ⇙3,7101963n/a
26.09 02:00-3,3-8,13,8 ⇐4,5101964n/a
Position: (66.95138888888,-53.729444444)

[Back]